Time;durP1;ratioP1;P1;durP2;ratioP2;P2;SDS_P1;SDS_P2;PMS_P1;PMS_P2;Temp;Humidity;BMP_temperature;BMP_pressure;BME280_temperature;BME280_humidity;BME280_pressure;Samples;Min_cycle;Max_cycle;Signal;HPM_P1;HPM_P2
2021/04/15 00:01:10;;;;;;;;;;;-2.30;96.70;;;;;;5031631;28;19913;-68
2021/04/15 00:03:36;;;;;;;;;;;-2.30;96.70;;;;;;5031705;28;20221;-66
2021/04/15 00:06:10;;;;;;;;;;;-2.40;96.70;;;;;;5032784;28;19917;-66
2021/04/15 00:08:35;;;;;;;;;;;-2.50;96.80;;;;;;5031177;28;20325;-65
2021/04/15 00:11:02;;;;;;;;;;;-2.50;96.40;;;;;;5033634;28;19948;-66
2021/04/15 00:13:32;;;;;;;;;;;-2.30;96.50;;;;;;5029197;28;19913;-66
2021/04/15 00:15:58;;;;;;;;;;;-2.20;96.60;;;;;;5033291;28;19921;-68
2021/04/15 00:18:26;;;;;;;;;;;-2.20;96.70;;;;;;5041069;28;20233;-66
2021/04/15 00:20:52;;;;;;;;;;;-2.20;96.70;;;;;;5027199;28;19928;-67
2021/04/15 00:23:17;;;;;;;;;;;-2.20;96.60;;;;;;5031436;28;19914;-67
2021/04/15 00:25:43;;;;;;;;;;;-2.20;96.60;;;;;;5032222;28;19940;-68
2021/04/15 00:28:09;;;;;;;;;;;-2.10;96.90;;;;;;5031730;28;19917;-67
2021/04/15 00:30:35;;;;;;;;;;;-2.10;96.70;;;;;;5033664;28;19929;-68
2021/04/15 00:33:00;;;;;;;;;;;-2.00;96.70;;;;;;5031675;28;19935;-66
2021/04/15 00:35:26;;;;;;;;;;;-2.00;97.00;;;;;;5032244;28;19917;-66
2021/04/15 00:37:52;;;;;;;;;;;-2.00;97.10;;;;;;5031924;28;19963;-67
2021/04/15 00:40:20;;;;;;;;;;;-1.90;97.20;;;;;;5036055;28;19920;-66
2021/04/15 00:42:46;;;;;;;;;;;-1.90;97.10;;;;;;5037957;28;19913;-67
2021/04/15 00:45:14;;;;;;;;;;;-1.90;97.20;;;;;;5037949;28;20008;-69
2021/04/15 00:47:41;;;;;;;;;;;-1.90;97.20;;;;;;5034291;28;20000;-67
2021/04/15 00:50:27;;;;;;;;;;;-1.90;97.10;;;;;;5034417;28;20206;-68
2021/04/15 00:52:55;;;;;;;;;;;-1.90;97.00;;;;;;5034872;28;20353;-68
2021/04/15 00:55:23;;;;;;;;;;;-2.00;97.30;;;;;;5036316;28;19917;-69
2021/04/15 00:57:49;;;;;;;;;;;-2.00;97.00;;;;;;5037411;28;19912;-69
2021/04/15 01:00:17;;;;;;;;;;;-2.10;97.10;;;;;;5023945;28;19940;-68
2021/04/15 01:02:43;;;;;;;;;;;-2.20;97.00;;;;;;5031959;28;19913;-69
2021/04/15 01:05:20;;;;;;;;;;;-2.30;96.90;;;;;;5036411;28;19983;-68
2021/04/15 01:07:45;;;;;;;;;;;-2.20;96.80;;;;;;5029473;28;19913;-68
2021/04/15 01:10:11;;;;;;;;;;;-2.30;96.70;;;;;;5045062;28;20265;-67
2021/04/15 01:12:37;;;;;;;;;;;-2.20;96.80;;;;;;5036455;28;19913;-67
2021/04/15 01:15:02;;;;;;;;;;;-2.10;96.30;;;;;;5032066;28;19956;-68
2021/04/15 01:17:46;;;;;;;;;;;-1.90;96.60;;;;;;5032626;28;19939;-67
2021/04/15 01:20:30;;;;;;;;;;;-1.80;96.60;;;;;;5049621;28;20004;-66
2021/04/15 01:23:02;;;;;;;;;;;-1.80;96.70;;;;;;5025548;28;19960;-67
2021/04/15 01:25:46;;;;;;;;;;;-1.70;96.70;;;;;;5019890;28;20229;-67
2021/04/15 01:28:21;;;;;;;;;;;-1.70;96.80;;;;;;5031426;28;20442;-69
2021/04/15 01:31:10;;;;;;;;;;;-1.70;96.90;;;;;;5022264;28;19913;-65
2021/04/15 01:33:36;;;;;;;;;;;-1.70;97.00;;;;;;5033827;28;19917;-67
2021/04/15 01:36:05;;;;;;;;;;;-1.80;96.80;;;;;;5023594;28;19918;-67
2021/04/15 01:38:30;;;;;;;;;;;-1.90;97.20;;;;;;5035705;28;19967;-67
2021/04/15 01:41:00;;;;;;;;;;;-2.10;97.20;;;;;;5035259;28;20302;-67
2021/04/15 01:43:40;;;;;;;;;;;-2.20;97.10;;;;;;5025532;28;19913;-66
2021/04/15 01:46:06;;;;;;;;;;;-2.30;96.70;;;;;;5036487;28;19968;-67
2021/04/15 01:48:39;;;;;;;;;;;-2.30;96.90;;;;;;5035213;28;20297;-67
2021/04/15 01:51:07;;;;;;;;;;;-2.30;96.90;;;;;;5033361;28;19980;-67
2021/04/15 01:53:36;;;;;;;;;;;-2.50;97.30;;;;;;5028095;28;19929;-68
2021/04/15 01:56:07;;;;;;;;;;;-2.60;97.00;;;;;;5035578;28;20295;-67
2021/04/15 01:58:45;;;;;;;;;;;-2.60;96.70;;;;;;5034375;28;19961;-68
2021/04/15 02:01:19;;;;;;;;;;;-2.70;97.00;;;;;;5026001;28;20210;-68
2021/04/15 02:03:46;;;;;;;;;;;-2.70;96.80;;;;;;5035740;28;19955;-65
2021/04/15 02:06:19;;;;;;;;;;;-2.70;96.90;;;;;;5035718;28;19917;-68
2021/04/15 02:08:46;;;;;;;;;;;-2.70;96.70;;;;;;5035952;28;19917;-65
2021/04/15 02:11:23;;;;;;;;;;;-2.80;97.00;;;;;;5034467;28;20218;-67
2021/04/15 02:13:50;;;;;;;;;;;-2.90;97.00;;;;;;5022889;28;19924;-65
2021/04/15 02:16:17;;;;;;;;;;;-3.00;97.20;;;;;;5035786;28;19923;-65
2021/04/15 02:18:44;;;;;;;;;;;-3.20;96.80;;;;;;5036520;28;20012;-66
2021/04/15 02:21:19;;;;;;;;;;;-3.10;96.70;;;;;;5036708;28;19948;-65
2021/04/15 02:23:49;;;;;;;;;;;-3.00;96.30;;;;;;5033651;28;19917;-66
2021/04/15 02:26:17;;;;;;;;;;;-3.00;96.50;;;;;;5033328;28;20233;-65
2021/04/15 02:28:46;;;;;;;;;;;-2.90;96.60;;;;;;5032056;28;19920;-67
2021/04/15 02:31:23;;;;;;;;;;;-2.80;96.70;;;;;;5035410;28;19975;-66
2021/04/15 02:33:52;;;;;;;;;;;-2.90;96.80;;;;;;5034876;28;19967;-65
2021/04/15 02:36:18;;;;;;;;;;;-3.00;96.70;;;;;;5026118;28;19917;-65
2021/04/15 02:38:44;;;;;;;;;;;-3.00;96.80;;;;;;5034487;28;19917;-66
2021/04/15 02:41:11;;;;;;;;;;;-2.80;96.20;;;;;;5034797;28;19913;-66
2021/04/15 02:43:39;;;;;;;;;;;-2.80;96.60;;;;;;5024011;28;19924;-67
2021/04/15 02:46:10;;;;;;;;;;;-2.70;96.40;;;;;;5018948;28;19917;-65
2021/04/15 02:48:37;;;;;;;;;;;-2.70;96.50;;;;;;5035272;28;19913;-67
2021/04/15 02:51:05;;;;;;;;;;;-2.70;96.70;;;;;;5049953;28;19913;-67
2021/04/15 02:53:33;;;;;;;;;;;-2.70;96.80;;;;;;5026266;28;19925;-67
2021/04/15 02:56:11;;;;;;;;;;;-2.80;96.60;;;;;;5029749;28;19943;-66
2021/04/15 02:58:48;;;;;;;;;;;-2.80;96.80;;;;;;5030210;28;20222;-67
2021/04/15 03:01:24;;;;;;;;;;;-3.00;96.90;;;;;;5033660;28;19970;-65
2021/04/15 03:03:54;;;;;;;;;;;-2.90;96.30;;;;;;5028125;28;20056;-67
2021/04/15 03:06:22;;;;;;;;;;;-2.80;96.50;;;;;;5028140;28;19913;-67
2021/04/15 03:08:49;;;;;;;;;;;-2.80;96.60;;;;;;5030709;28;20008;-67
2021/04/15 03:11:20;;;;;;;;;;;-2.70;96.70;;;;;;5033640;28;19921;-67
2021/04/15 03:13:47;;;;;;;;;;;-2.70;96.90;;;;;;5033009;28;19913;-67
2021/04/15 03:16:14;;;;;;;;;;;-2.80;96.70;;;;;;5034564;28;19917;-65
2021/04/15 03:18:46;;;;;;;;;;;-2.90;96.90;;;;;;5035169;28;19913;-67
2021/04/15 03:21:21;;;;;;;;;;;-3.00;96.80;;;;;;5023741;28;19913;-67
2021/04/15 03:23:50;;;;;;;;;;;-3.10;97.10;;;;;;5034603;28;20251;-64
2021/04/15 03:26:35;;;;;;;;;;;-3.30;96.90;;;;;;5033795;28;19913;-66
2021/04/15 03:29:10;;;;;;;;;;;-3.40;96.70;;;;;;5032406;28;20195;-65
2021/04/15 03:31:42;;;;;;;;;;;-3.40;96.80;;;;;;5031252;28;19913;-65
2021/04/15 03:34:13;;;;;;;;;;;-3.30;96.50;;;;;;5032126;28;19913;-64
2021/04/15 03:36:40;;;;;;;;;;;-3.20;96.60;;;;;;5026568;28;19965;-64
2021/04/15 03:39:19;;;;;;;;;;;-3.10;96.50;;;;;;5027793;28;19939;-68
2021/04/15 03:41:47;;;;;;;;;;;-3.10;96.50;;;;;;5018093;28;20059;-67
2021/04/15 03:44:15;;;;;;;;;;;-3.00;96.50;;;;;;5029564;28;20012;-67
2021/04/15 03:46:46;;;;;;;;;;;-3.00;96.70;;;;;;5031908;28;19920;-67
2021/04/15 03:49:15;;;;;;;;;;;-2.90;96.70;;;;;;5032430;28;19920;-67
2021/04/15 03:51:45;;;;;;;;;;;-3.00;96.50;;;;;;5027795;28;19914;-67
2021/04/15 03:54:14;;;;;;;;;;;-3.00;96.70;;;;;;5026593;28;19968;-67
2021/04/15 03:56:47;;;;;;;;;;;-3.00;96.80;;;;;;5032033;28;19968;-66
2021/04/15 03:59:28;;;;;;;;;;;-3.10;96.70;;;;;;5033855;28;19913;-67
2021/04/15 04:01:54;;;;;;;;;;;-3.10;96.70;;;;;;5029244;28;19924;-67
2021/04/15 04:04:27;;;;;;;;;;;-3.10;96.80;;;;;;5016492;28;20285;-66
2021/04/15 04:06:53;;;;;;;;;;;-3.30;97.00;;;;;;5020797;28;19922;-67
2021/04/15 04:09:25;;;;;;;;;;;-3.50;97.00;;;;;;5022761;28;19936;-67
2021/04/15 04:11:52;;;;;;;;;;;-3.70;96.90;;;;;;5034712;28;19925;-67
2021/04/15 04:14:38;;;;;;;;;;;-3.80;96.70;;;;;;5032585;28;19996;-67
2021/04/15 04:17:17;;;;;;;;;;;-3.80;96.70;;;;;;5034376;28;19929;-66
2021/04/15 04:19:51;;;;;;;;;;;-3.90;96.90;;;;;;5031320;28;20302;-68
2021/04/15 04:22:43;;;;;;;;;;;-4.10;96.70;;;;;;5034592;28;19917;-67
2021/04/15 04:25:37;;;;;;;;;;;-4.00;96.80;;;;;;5037336;28;19936;-67
2021/04/15 04:28:15;;;;;;;;;;;-4.10;96.80;;;;;;5043084;28;19921;-67
2021/04/15 04:30:45;;;;;;;;;;;-4.20;96.80;;;;;;5036209;28;19943;-67
2021/04/15 04:33:12;;;;;;;;;;;-4.10;96.10;;;;;;5036199;28;19913;-68
2021/04/15 04:35:40;;;;;;;;;;;-4.00;96.40;;;;;;5037400;28;19932;-67
2021/04/15 04:38:08;;;;;;;;;;;-4.00;96.80;;;;;;5030894;28;20044;-68
2021/04/15 04:40:45;;;;;;;;;;;-3.90;96.70;;;;;;5037764;28;19971;-67
2021/04/15 04:43:19;;;;;;;;;;;-3.90;96.80;;;;;;5036566;28;19939;-68
2021/04/15 04:45:45;;;;;;;;;;;-4.10;96.80;;;;;;5036713;28;20281;-67
2021/04/15 04:48:26;;;;;;;;;;;-4.10;96.70;;;;;;5030522;28;19920;-68
2021/04/15 04:50:55;;;;;;;;;;;-4.00;96.10;;;;;;5023690;28;19944;-67
2021/04/15 04:53:42;;;;;;;;;;;-3.80;96.50;;;;;;5027278;28;20370;-66
2021/04/15 04:56:21;;;;;;;;;;;-3.80;96.80;;;;;;5032572;28;19928;-67
2021/04/15 04:58:56;;;;;;;;;;;-3.80;96.80;;;;;;5029918;28;20998;-68
2021/04/15 05:01:22;;;;;;;;;;;-3.90;96.50;;;;;;5033215;28;19960;-68
2021/04/15 05:03:48;;;;;;;;;;;-3.80;96.80;;;;;;5035754;28;19924;-68
2021/04/15 05:06:24;;;;;;;;;;;-3.80;96.80;;;;;;5033589;28;20008;-67
2021/04/15 05:09:02;;;;;;;;;;;-3.80;96.70;;;;;;5031589;28;19957;-67
2021/04/15 05:11:29;;;;;;;;;;;-3.70;96.40;;;;;;5033805;28;19924;-67
2021/04/15 05:13:54;;;;;;;;;;;-3.60;96.30;;;;;;5034748;28;20010;-67
2021/04/15 05:16:20;;;;;;;;;;;-3.50;96.70;;;;;;5035872;28;19921;-68
2021/04/15 05:18:46;;;;;;;;;;;-3.50;96.60;;;;;;5029690;28;19977;-67
2021/04/15 05:21:15;;;;;;;;;;;-3.50;96.80;;;;;;5037548;28;19916;-66
2021/04/15 05:23:44;;;;;;;;;;;-3.50;96.80;;;;;;5035681;28;20321;-66
2021/04/15 05:26:12;;;;;;;;;;;-3.60;96.60;;;;;;5037358;28;19920;-68
2021/04/15 05:28:39;;;;;;;;;;;-3.50;96.40;;;;;;5036288;28;19932;-67
2021/04/15 05:31:05;;;;;;;;;;;-3.40;96.50;;;;;;5035955;28;19913;-68
2021/04/15 05:33:31;;;;;;;;;;;-3.30;96.60;;;;;;5037899;28;19913;-66
2021/04/15 05:36:03;;;;;;;;;;;-3.30;96.60;;;;;;5037599;28;19924;-68
2021/04/15 05:38:32;;;;;;;;;;;-3.20;96.70;;;;;;5034944;28;19968;-67
2021/04/15 05:40:58;;;;;;;;;;;-3.10;96.50;;;;;;5031558;28;19962;-68
2021/04/15 05:43:25;;;;;;;;;;;-3.00;96.70;;;;;;5034009;28;19941;-66
2021/04/15 05:45:56;;;;;;;;;;;-2.80;96.40;;;;;;5032787;28;19917;-68
2021/04/15 05:48:24;;;;;;;;;;;-2.60;95.90;;;;;;5018097;28;19913;-67
2021/04/15 05:50:51;;;;;;;;;;;-2.20;96.20;;;;;;5017417;28;19920;-66
2021/04/15 05:53:19;;;;;;;;;;;-1.70;95.90;;;;;;5027638;28;19921;-67
2021/04/15 05:55:46;;;;;;;;;;;-1.30;95.90;;;;;;5036942;28;19921;-65
2021/04/15 05:58:24;;;;;;;;;;;-0.90;96.30;;;;;;5037397;28;19935;-67
2021/04/15 06:01:03;;;;;;;;;;;-0.70;96.20;;;;;;5037455;28;19916;-66
2021/04/15 06:03:51;;;;;;;;;;;-0.70;96.80;;;;;;5037150;28;19916;-65
2021/04/15 06:06:19;;;;;;;;;;;-0.60;96.90;;;;;;5036448;28;19959;-65
2021/04/15 06:08:47;;;;;;;;;;;-0.60;97.70;;;;;;5035109;28;19920;-65
2021/04/15 06:11:31;;;;;;;;;;;-0.60;97.50;;;;;;5036694;28;19917;-65
2021/04/15 06:14:01;;;;;;;;;;;-0.70;97.30;;;;;;5036342;28;19917;-65
2021/04/15 06:16:36;;;;;;;;;;;-0.70;97.40;;;;;;5025468;28;20312;-66
2021/04/15 06:19:06;;;;;;;;;;;-0.70;97.70;;;;;;5017241;28;19949;-68
2021/04/15 06:21:39;;;;;;;;;;;-0.30;97.00;;;;;;5033857;28;19983;-65
2021/04/15 06:24:07;;;;;;;;;;;-0.10;96.90;;;;;;5034377;28;19960;-66
2021/04/15 06:26:35;;;;;;;;;;;0.30;97.40;;;;;;5035378;28;19913;-66
2021/04/15 06:29:03;;;;;;;;;;;0.40;98.00;;;;;;5030027;28;19913;-65
2021/04/15 06:31:39;;;;;;;;;;;0.60;97.30;;;;;;5036353;28;19913;-65
2021/04/15 06:34:09;;;;;;;;;;;0.90;98.00;;;;;;5036804;28;19909;-68
2021/04/15 06:36:47;;;;;;;;;;;0.60;98.00;;;;;;5034622;28;19923;-67
2021/04/15 06:39:17;;;;;;;;;;;0.40;97.80;;;;;;5034538;28;20264;-67
2021/04/15 06:41:43;;;;;;;;;;;0.20;98.00;;;;;;5035776;28;19936;-67
2021/04/15 06:44:15;;;;;;;;;;;0.20;97.80;;;;;;5036108;28;19924;-67
2021/04/15 06:46:55;;;;;;;;;;;0.30;98.00;;;;;;5036156;28;19960;-67
2021/04/15 06:49:29;;;;;;;;;;;0.50;97.70;;;;;;5036008;28;20317;-67
2021/04/15 06:52:01;;;;;;;;;;;1.00;98.00;;;;;;5034972;28;19928;-66
2021/04/15 06:54:36;;;;;;;;;;;1.20;98.00;;;;;;5035709;28;19921;-66
2021/04/15 06:57:05;;;;;;;;;;;1.20;98.00;;;;;;5036382;28;19968;-67
2021/04/15 06:59:42;;;;;;;;;;;1.10;98.00;;;;;;5033008;28;19916;-66
2021/04/15 07:02:10;;;;;;;;;;;1.10;98.00;;;;;;5030785;28;19913;-66
2021/04/15 07:04:41;;;;;;;;;;;1.10;98.00;;;;;;5032027;28;19927;-67
2021/04/15 07:07:28;;;;;;;;;;;0.90;98.00;;;;;;5030341;28;19921;-69
2021/04/15 07:09:55;;;;;;;;;;;0.70;97.30;;;;;;5035406;28;20569;-67
2021/04/15 07:12:39;;;;;;;;;;;1.00;98.00;;;;;;5032788;28;20229;-67
2021/04/15 07:15:23;;;;;;;;;;;1.10;98.00;;;;;;5031602;28;19925;-66
2021/04/15 07:18:07;;;;;;;;;;;1.20;98.00;;;;;;5029820;28;19913;-66
2021/04/15 07:20:35;;;;;;;;;;;1.00;98.00;;;;;;5030212;28;19948;-67
2021/04/15 07:23:13;;;;;;;;;;;0.90;98.00;;;;;;5027212;28;19913;-67
2021/04/15 07:25:56;;;;;;;;;;;1.00;97.90;;;;;;5016128;28;19914;-67
2021/04/15 07:28:31;;;;;;;;;;;1.40;98.00;;;;;;5033015;28;19936;-67
2021/04/15 07:31:14;;;;;;;;;;;1.30;98.00;;;;;;5029561;28;20305;-67
2021/04/15 07:33:43;;;;;;;;;;;1.10;97.90;;;;;;5031222;28;19913;-67
2021/04/15 07:36:28;;;;;;;;;;;0.90;97.80;;;;;;5035019;28;19923;-67
2021/04/15 07:39:13;;;;;;;;;;;1.10;97.90;;;;;;5033548;28;19916;-67
2021/04/15 07:41:56;;;;;;;;;;;1.30;98.00;;;;;;5035487;28;19909;-67
2021/04/15 07:44:42;;;;;;;;;;;1.30;98.00;;;;;;5035703;28;19913;-67
2021/04/15 07:47:10;;;;;;;;;;;1.30;98.00;;;;;;5031582;28;20264;-67
2021/04/15 07:49:54;;;;;;;;;;;1.20;98.00;;;;;;5035499;28;19920;-65
2021/04/15 07:52:26;;;;;;;;;;;1.10;98.00;;;;;;5034954;28;19921;-67
2021/04/15 07:55:00;;;;;;;;;;;1.30;98.00;;;;;;5033282;28;20369;-68
2021/04/15 07:57:35;;;;;;;;;;;0.80;97.30;;;;;;5032778;28;19913;-66
2021/04/15 08:00:19;;;;;;;;;;;0.90;97.70;;;;;;5038757;28;19956;-67
2021/04/15 08:02:51;;;;;;;;;;;1.20;98.00;;;;;;5038373;28;20302;-66
2021/04/15 08:05:32;;;;;;;;;;;1.20;98.00;;;;;;5038783;28;19971;-66
2021/04/15 08:08:12;;;;;;;;;;;1.70;98.00;;;;;;5036974;28;19917;-67
2021/04/15 08:10:52;;;;;;;;;;;2.70;98.00;;;;;;5035087;28;19971;-67
2021/04/15 08:13:36;;;;;;;;;;;4.60;97.00;;;;;;5036308;28;19952;-67
2021/04/15 08:16:20;;;;;;;;;;;6.40;90.20;;;;;;5023714;28;20276;-70
2021/04/15 08:18:46;;;;;;;;;;;8.10;83.60;;;;;;5038736;28;19917;-67
2021/04/15 08:21:14;;;;;;;;;;;8.00;80.40;;;;;;5038422;28;19921;-66
2021/04/15 08:24:18;;;;;;;;;;;7.30;81.50;;;;;;5037240;28;19992;-66
2021/04/15 08:26:47;;;;;;;;;;;7.20;81.90;;;;;;4997650;28;19910;-66
2021/04/15 08:29:30;;;;;;;;;;;7.80;81.30;;;;;;4991872;28;19922;-68
2021/04/15 08:32:08;;;;;;;;;;;7.70;80.60;;;;;;5012930;28;19917;-67
2021/04/15 08:34:36;;;;;;;;;;;8.00;80.40;;;;;;5037930;28;19921;-66
2021/04/15 08:37:20;;;;;;;;;;;8.10;79.80;;;;;;5037464;28;19983;-68
2021/04/15 08:39:55;;;;;;;;;;;8.40;78.30;;;;;;5037263;28;19924;-68
2021/04/15 08:42:53;;;;;;;;;;;8.60;78.70;;;;;;5038505;28;19981;-68
2021/04/15 08:45:32;;;;;;;;;;;9.00;77.10;;;;;;5020967;28;19963;-68
2021/04/15 08:48:05;;;;;;;;;;;8.70;76.70;;;;;;5038074;28;19913;-67
2021/04/15 08:50:31;;;;;;;;;;;8.10;75.50;;;;;;5037742;28;19966;-67
2021/04/15 08:53:15;;;;;;;;;;;7.90;79.00;;;;;;5035771;28;20373;-67
2021/04/15 08:55:46;;;;;;;;;;;8.30;77.50;;;;;;5037942;28;19917;-68
2021/04/15 08:58:22;;;;;;;;;;;8.50;76.80;;;;;;5038408;28;19960;-67
2021/04/15 09:00:55;;;;;;;;;;;8.60;76.00;;;;;;5028749;28;20326;-67
2021/04/15 09:03:26;;;;;;;;;;;9.00;76.20;;;;;;5034222;28;19974;-66
2021/04/15 09:06:08;;;;;;;;;;;9.50;74.60;;;;;;5031992;28;19913;-67
2021/04/15 09:08:37;;;;;;;;;;;9.40;74.30;;;;;;5032245;28;20353;-67
2021/04/15 09:11:18;;;;;;;;;;;9.40;73.00;;;;;;5034973;28;20007;-65
2021/04/15 09:13:48;;;;;;;;;;;9.00;74.70;;;;;;5037707;28;19956;-67
2021/04/15 09:16:17;;;;;;;;;;;9.40;74.30;;;;;;5032492;28;19925;-67
2021/04/15 09:19:02;;;;;;;;;;;9.80;72.90;;;;;;5036962;28;20003;-65
2021/04/15 09:21:47;;;;;;;;;;;9.80;72.30;;;;;;5032240;28;19917;-66
2021/04/15 09:24:42;;;;;;;;;;;9.70;71.50;;;;;;5036730;28;19963;-65
2021/04/15 09:27:21;;;;;;;;;;;8.80;71.10;;;;;;5036129;28;19913;-66
2021/04/15 09:29:46;;;;;;;;;;;7.10;74.40;;;;;;5032564;28;20000;-68
2021/04/15 09:32:20;;;;;;;;;;;7.70;75.80;;;;;;5027261;28;19999;-68
2021/04/15 09:34:54;;;;;;;;;;;8.80;76.40;;;;;;5051224;28;19991;-69
2021/04/15 09:37:45;;;;;;;;;;;9.80;72.40;;;;;;5036364;28;19928;-68
2021/04/15 09:40:16;;;;;;;;;;;8.90;70.50;;;;;;5035287;28;19913;-68
2021/04/15 09:43:00;;;;;;;;;;;8.90;68.60;;;;;;5037574;28;19983;-68
2021/04/15 09:45:44;;;;;;;;;;;8.50;68.60;;;;;;5033267;28;19944;-68
2021/04/15 09:48:13;;;;;;;;;;;7.20;70.20;;;;;;5037518;28;19909;-69
2021/04/15 09:50:38;;;;;;;;;;;6.90;73.40;;;;;;5036820;28;19917;-67
2021/04/15 09:53:24;;;;;;;;;;;8.20;71.80;;;;;;5034719;28;19998;-68
2021/04/15 09:56:14;;;;;;;;;;;9.30;68.80;;;;;;5036988;28;19917;-68
2021/04/15 09:58:55;;;;;;;;;;;10.60;66.20;;;;;;5035270;28;19971;-68
2021/04/15 10:01:24;;;;;;;;;;;10.90;64.70;;;;;;5024055;28;19913;-68
2021/04/15 10:03:52;;;;;;;;;;;10.90;63.20;;;;;;5027685;28;19944;-68
2021/04/15 10:06:26;;;;;;;;;;;10.30;63.20;;;;;;5037130;28;19913;-68
2021/04/15 10:08:54;;;;;;;;;;;8.90;63.90;;;;;;5036053;28;19959;-69
2021/04/15 10:11:26;;;;;;;;;;;7.80;65.10;;;;;;5037039;28;19962;-68
2021/04/15 10:14:12;;;;;;;;;;;7.00;67.30;;;;;;5036830;28;19913;-66
2021/04/15 10:16:56;;;;;;;;;;;6.40;69.30;;;;;;5016166;28;19917;-68
2021/04/15 10:19:32;;;;;;;;;;;6.00;70.50;;;;;;5037018;28;19932;-68
2021/04/15 10:22:19;;;;;;;;;;;5.90;71.80;;;;;;5035049;28;19914;-67
2021/04/15 10:24:49;;;;;;;;;;;6.20;71.20;;;;;;5036754;28;19916;-68
2021/04/15 10:27:33;;;;;;;;;;;6.60;69.90;;;;;;5036636;28;19921;-68
2021/04/15 10:30:10;;;;;;;;;;;6.70;67.90;;;;;;5036271;28;20191;-68
2021/04/15 10:32:39;;;;;;;;;;;7.20;68.50;;;;;;5035304;28;19914;-68
2021/04/15 10:35:13;;;;;;;;;;;7.10;67.50;;;;;;5036231;28;19909;-68
2021/04/15 10:38:05;;;;;;;;;;;7.70;66.30;;;;;;5034556;28;19917;-68
2021/04/15 10:40:42;;;;;;;;;;;8.00;64.90;;;;;;5027839;28;20033;-67
2021/04/15 10:43:11;;;;;;;;;;;9.00;64.10;;;;;;5035311;28;20003;-68
2021/04/15 10:45:55;;;;;;;;;;;9.20;63.40;;;;;;5036129;28;19920;-68
2021/04/15 10:48:25;;;;;;;;;;;8.60;62.40;;;;;;5036015;28;19995;-68
2021/04/15 10:50:56;;;;;;;;;;;8.00;64.50;;;;;;5036151;28;19913;-68
2021/04/15 10:53:40;;;;;;;;;;;7.30;65.50;;;;;;5025088;28;19921;-68
2021/04/15 10:56:29;;;;;;;;;;;7.00;65.30;;;;;;5035936;28;20262;-68
2021/04/15 10:59:07;;;;;;;;;;;7.10;65.90;;;;;;5012177;28;19997;-68
2021/04/15 11:01:34;;;;;;;;;;;7.80;65.90;;;;;;5028036;28;19914;-67
2021/04/15 11:04:01;;;;;;;;;;;9.00;61.40;;;;;;5024736;28;20188;-68
2021/04/15 11:06:35;;;;;;;;;;;9.90;60.50;;;;;;5031368;28;20213;-68
2021/04/15 11:09:18;;;;;;;;;;;11.10;57.90;;;;;;5034584;28;19913;-68
2021/04/15 11:11:51;;;;;;;;;;;10.90;56.80;;;;;;5035362;28;19983;-68
2021/04/15 11:14:17;;;;;;;;;;;10.90;54.30;;;;;;5035545;28;19920;-68
2021/04/15 11:16:46;;;;;;;;;;;9.90;58.10;;;;;;5035760;28;19921;-68
2021/04/15 11:19:13;;;;;;;;;;;9.50;57.60;;;;;;5034770;28;19936;-68
2021/04/15 11:21:39;;;;;;;;;;;9.50;58.00;;;;;;5023920;28;19916;-68
2021/04/15 11:24:27;;;;;;;;;;;9.60;57.80;;;;;;5018209;28;19936;-68
2021/04/15 11:26:54;;;;;;;;;;;9.20;58.40;;;;;;5028129;28;20005;-68
2021/04/15 11:29:21;;;;;;;;;;;8.80;57.30;;;;;;5016199;28;20310;-68
2021/04/15 11:31:47;;;;;;;;;;;8.40;58.70;;;;;;5015970;28;19956;-68
2021/04/15 11:34:14;;;;;;;;;;;8.60;59.30;;;;;;5016246;28;19917;-68
2021/04/15 11:36:41;;;;;;;;;;;9.50;57.90;;;;;;5016055;28;20266;-69
2021/04/15 11:39:13;;;;;;;;;;;10.20;55.90;;;;;;5013677;28;19964;-68
2021/04/15 11:41:42;;;;;;;;;;;10.30;57.40;;;;;;5015931;28;19909;-68
2021/04/15 11:44:09;;;;;;;;;;;10.40;58.30;;;;;;5015988;28;20303;-68
2021/04/15 11:46:58;;;;;;;;;;;10.50;58.10;;;;;;5028865;28;20301;-67
2021/04/15 11:49:31;;;;;;;;;;;10.70;60.60;;;;;;5016244;28;19917;-66
2021/04/15 11:51:59;;;;;;;;;;;9.90;58.10;;;;;;5033952;28;19964;-67
2021/04/15 11:54:27;;;;;;;;;;;9.40;60.60;;;;;;5034895;28;19925;-68
2021/04/15 11:56:53;;;;;;;;;;;9.40;60.80;;;;;;5034999;28;19964;-68
2021/04/15 11:59:29;;;;;;;;;;;9.70;61.00;;;;;;5035620;28;19960;-67
2021/04/15 12:02:13;;;;;;;;;;;9.70;60.30;;;;;;5034268;28;20269;-67
2021/04/15 12:04:38;;;;;;;;;;;9.60;60.00;;;;;;5035757;28;19912;-67
2021/04/15 12:07:37;;;;;;;;;;;8.80;61.20;;;;;;5033619;28;20004;-68
2021/04/15 12:10:03;;;;;;;;;;;8.10;62.80;;;;;;5023540;28;19936;-66
2021/04/15 12:12:37;;;;;;;;;;;7.30;67.10;;;;;;5035007;28;19913;-65
2021/04/15 12:15:08;;;;;;;;;;;7.10;70.00;;;;;;5035525;28;19917;-65
2021/04/15 12:17:43;;;;;;;;;;;7.60;68.90;;;;;;5035183;28;20018;-64
2021/04/15 12:20:10;;;;;;;;;;;8.40;66.30;;;;;;5034283;28;19921;-65
2021/04/15 12:22:36;;;;;;;;;;;8.90;65.00;;;;;;5032968;28;19913;-68
2021/04/15 12:25:01;;;;;;;;;;;9.40;63.50;;;;;;5034367;28;19920;-67
2021/04/15 12:27:32;;;;;;;;;;;9.80;63.60;;;;;;5026713;28;19917;-67
2021/04/15 12:30:09;;;;;;;;;;;9.90;66.20;;;;;;5035229;28;20000;-67
2021/04/15 12:32:36;;;;;;;;;;;10.90;60.30;;;;;;5034745;28;19917;-67
2021/04/15 12:35:05;;;;;;;;;;;11.10;58.00;;;;;;5035200;28;19913;-67
2021/04/15 12:37:39;;;;;;;;;;;11.10;58.60;;;;;;5035115;28;19913;-67
2021/04/15 12:40:13;;;;;;;;;;;11.10;58.00;;;;;;5038146;28;19913;-67
2021/04/15 12:42:43;;;;;;;;;;;9.80;58.90;;;;;;5034911;28;19970;-66
2021/04/15 12:45:22;;;;;;;;;;;8.60;62.20;;;;;;5030136;28;19989;-66
2021/04/15 12:47:49;;;;;;;;;;;8.10;65.30;;;;;;5024833;28;20285;-66
2021/04/15 12:50:14;;;;;;;;;;;7.90;66.60;;;;;;5036851;28;20218;-65
2021/04/15 12:52:40;;;;;;;;;;;7.50;68.60;;;;;;5036698;28;19928;-64
2021/04/15 12:55:14;;;;;;;;;;;7.00;71.10;;;;;;5043368;28;19927;-65
2021/04/15 12:57:39;;;;;;;;;;;6.80;74.00;;;;;;5037932;28;20000;-65
2021/04/15 13:00:14;;;;;;;;;;;6.70;73.60;;;;;;5038082;28;20004;-64
2021/04/15 13:02:40;;;;;;;;;;;7.10;74.30;;;;;;5033407;28;19939;-65
2021/04/15 13:05:11;;;;;;;;;;;7.60;70.80;;;;;;5036712;28;20244;-67
2021/04/15 13:07:38;;;;;;;;;;;7.50;68.60;;;;;;5039568;28;19920;-66
2021/04/15 13:10:13;;;;;;;;;;;7.30;69.30;;;;;;5031232;28;19931;-66
2021/04/15 13:12:45;;;;;;;;;;;7.90;70.30;;;;;;5026325;28;19967;-67
2021/04/15 13:15:26;;;;;;;;;;;8.90;66.80;;;;;;5037539;28;19971;-66
2021/04/15 13:17:53;;;;;;;;;;;8.70;67.10;;;;;;5036926;28;19948;-66
2021/04/15 13:20:18;;;;;;;;;;;8.40;66.90;;;;;;5038094;28;19916;-66
2021/04/15 13:22:45;;;;;;;;;;;8.10;69.90;;;;;;5029111;28;20271;-67
2021/04/15 13:25:22;;;;;;;;;;;8.40;68.60;;;;;;5030797;28;19913;-67
2021/04/15 13:27:53;;;;;;;;;;;8.10;67.10;;;;;;5035746;28;20275;-67
2021/04/15 13:30:29;;;;;;;;;;;7.90;68.60;;;;;;5037617;28;19914;-67
2021/04/15 13:33:10;;;;;;;;;;;8.70;67.20;;;;;;5037617;28;19917;-67
2021/04/15 13:35:59;;;;;;;;;;;9.10;66.30;;;;;;5037778;28;19913;-66
2021/04/15 13:41:25;;;;;;;;;;;9.00;66.00;;;;;;4995326;28;19909;-67
2021/04/15 13:43:56;;;;;;;;;;;8.60;65.80;;;;;;5028390;28;20007;-67
2021/04/15 13:49:06;;;;;;;;;;;8.80;65.90;;;;;;5036205;28;19920;-67
2021/04/15 13:51:31;;;;;;;;;;;9.90;67.30;;;;;;5019215;28;19924;-67
2021/04/15 13:54:23;;;;;;;;;;;10.30;62.60;;;;;;5016342;28;19921;-67
2021/04/15 13:56:59;;;;;;;;;;;11.10;61.60;;;;;;5018242;28;19918;-67
2021/04/15 13:59:31;;;;;;;;;;;10.80;59.50;;;;;;5037291;28;20241;-67
2021/04/15 14:02:15;;;;;;;;;;;10.80;62.80;;;;;;5037337;28;20336;-67
2021/04/15 14:07:25;;;;;;;;;;;11.30;62.10;;;;;;5035146;28;19917;-67
2021/04/15 14:09:53;;;;;;;;;;;11.00;62.70;;;;;;5031977;28;19920;-67
2021/04/15 14:12:37;;;;;;;;;;;10.30;60.50;;;;;;5036443;28;19913;-67
2021/04/15 14:15:04;;;;;;;;;;;10.10;63.40;;;;;;5017223;28;19916;-66
2021/04/15 14:17:31;;;;;;;;;;;9.60;63.40;;;;;;5021189;28;20218;-66
2021/04/15 14:20:09;;;;;;;;;;;9.30;62.60;;;;;;5035829;28;19917;-67
2021/04/15 14:22:35;;;;;;;;;;;9.70;63.20;;;;;;5037688;28;20055;-67
2021/04/15 14:25:08;;;;;;;;;;;9.90;61.70;;;;;;5035693;28;19967;-67
2021/04/15 14:27:34;;;;;;;;;;;10.10;59.70;;;;;;5026814;28;19917;-67
2021/04/15 14:30:11;;;;;;;;;;;10.00;61.60;;;;;;5033806;28;20054;-67
2021/04/15 14:32:38;;;;;;;;;;;10.20;58.70;;;;;;5021837;28;19921;-66
2021/04/15 14:35:19;;;;;;;;;;;10.00;61.40;;;;;;5021778;28;20200;-67
2021/04/15 14:37:46;;;;;;;;;;;10.00;59.00;;;;;;5028087;28;19929;-67
2021/04/15 14:40:17;;;;;;;;;;;9.50;59.10;;;;;;5032670;28;19966;-67
2021/04/15 14:42:43;;;;;;;;;;;9.20;59.70;;;;;;5029762;28;19925;-67
2021/04/15 14:45:32;;;;;;;;;;;9.30;60.50;;;;;;5023601;28;20475;-67
2021/04/15 14:47:58;;;;;;;;;;;9.60;59.10;;;;;;5033397;28;19913;-66
2021/04/15 14:50:24;;;;;;;;;;;10.10;60.00;;;;;;5033303;28;19917;-66
2021/04/15 14:52:50;;;;;;;;;;;10.00;59.50;;;;;;5031871;28;19967;-67
2021/04/15 14:55:17;;;;;;;;;;;9.20;60.50;;;;;;5025174;28;19926;-67
2021/04/15 14:57:42;;;;;;;;;;;8.30;61.40;;;;;;5016949;28;20017;-67
2021/04/15 15:00:11;;;;;;;;;;;7.60;62.70;;;;;;5023786;28;20685;-66
2021/04/15 15:02:37;;;;;;;;;;;6.90;63.80;;;;;;5019041;28;20079;-67
2021/04/15 15:05:05;;;;;;;;;;;6.60;66.10;;;;;;5024792;28;20347;-66